Observations from the automatic weather station at Ocean Reef are no longer available as of 13 July 2023. Please use observations from Swanbourne.

Latest Weather Observations for Ocean Reef

IDW60801

Issued at 8:03 am WST Tuesday 21 May 2024 (issued every 10 minutes, with the page automatically refreshed every 10 minutes)

About weather observations | Map of weather stations | Latest weather observations for WA | Other Formats
Station Details ID: 009214 Name: OCEAN REEF Lat: -31.76 Lon: 115.73 Height: 10.0 m
Data from the previous 72 hours. | See also: Recent months at Ocean Reef
Date/Time
WST
Temp
°C
App
Temp
°C
Dew
Point
°C
Rel
Hum
%
Delta-T
°C
Wind Press
QNH
hPa
Press
MSL
hPa
Rain since
9am
mm
Dir  Spd
km/h
Gust
km/h
Spd
kts
Gust
kts
21/08:00am - - - - - NE 24 32 13 17 - - -
21/07:30am - - - - - NE 24 30 13 16 - - -
21/07:00am - - - - - NE 26 32 14 17 - - -
21/06:30am - - - - - NE 26 32 14 17 - - -
21/06:00am - - - - - ENE 26 32 14 17 - - -
21/05:30am - - - - - ENE 26 30 14 16 - - -
21/05:00am - - - - - ENE 24 30 13 16 - - -
21/04:30am - - - - - ENE 20 28 11 15 - - -
21/04:00am - - - - - ENE 22 28 12 15 - - -
21/03:30am - - - - - ENE 22 26 12 14 - - -
21/03:00am - - - - - ENE 20 26 11 14 - - -
21/02:30am - - - - - ENE 20 24 11 13 - - -
21/02:00am - - - - - ENE 20 26 11 14 - - -
21/01:30am - - - - - NE 19 22 10 12 - - -
21/01:00am - - - - - NE 19 22 10 12 - - -
21/12:30am - - - - - ENE 19 22 10 12 - - -
21/12:00am - - - - - ENE 17 22 9 12 - - -
 
Date/Time
WST
Temp
°C
App
Temp
°C
Dew
Point
°C
Rel
Hum
%
Delta-T
°C
Wind Press
QNH
hPa
Press
MSL
hPa
Rain since
9am
mm
Dir  Spd
km/h
Gust
km/h
Spd
kts
Gust
kts
20/11:30pm - - - - - ENE 19 22 10 12 - - -
20/11:00pm - - - - - ENE 17 22 9 12 - - -
20/10:30pm - - - - - ENE 17 19 9 10 - - -
20/10:00pm - - - - - ENE 15 19 8 10 - - -
20/09:30pm - - - - - ENE 15 17 8 9 - - -
20/09:00pm - - - - - ENE 17 19 9 10 - - -
20/08:30pm - - - - - ENE 17 17 9 9 - - -
20/08:00pm - - - - - NE 9 15 5 8 - - -
20/07:30pm - - - - - CALM 0 0 0 0 - - -
20/07:00pm - - - - - N 6 7 3 4 - - -
20/06:30pm - - - - - N 7 9 4 5 - - -
20/06:00pm - - - - - ESE 6 9 3 5 - - -
20/05:30pm - - - - - CALM 0 0 0 0 - - -
20/05:00pm - - - - - CALM 0 0 0 0 - - -
20/04:30pm - - - - - CALM 0 0 0 0 - - -
20/04:00pm - - - - - CALM 0 0 0 0 - - -
20/03:30pm - - - - - NNW 4 7 2 4 - - -
20/03:00pm - - - - - N 9 13 5 7 - - -
20/02:30pm - - - - - N 13 17 7 9 - - -
20/02:00pm - - - - - N 17 22 9 12 - - -
20/01:30pm - - - - - NNE 15 22 8 12 - - -
20/01:00pm - - - - - NNE 19 26 10 14 - - -
20/12:30pm - - - - - NNE 22 33 12 18 - - -
20/12:00pm - - - - - NNE 24 35 13 19 - - -
20/11:30am - - - - - NNE 24 35 13 19 - - -
20/11:00am - - - - - NNE 28 39 15 21 - - -
20/10:30am - - - - - NE 28 37 15 20 - - -
20/10:00am - - - - - NE 28 39 15 21 - - -
20/09:30am - - - - - NE 26 39 14 21 - - -
20/09:00am - - - - - NE 28 43 15 23 - - -
20/08:30am - - - - - NE 24 32 13 17 - - -
20/08:00am - - - - - NE 26 35 14 19 - - -
20/07:30am - - - - - NE 26 35 14 19 - - -
20/07:00am - - - - - NE 22 30 12 16 - - -
20/06:30am - - - - - NE 22 30 12 16 - - -
20/06:00am - - - - - NE 20 30 11 16 - - -
20/05:30am - - - - - ENE 17 24 9 13 - - -
20/05:00am - - - - - ENE 17 24 9 13 - - -
20/04:30am - - - - - ENE 15 20 8 11 - - -
20/04:00am - - - - - ENE 13 17 7 9 - - -
20/03:30am - - - - - NE 9 15 5 8 - - -
20/03:00am - - - - - NE 17 28 9 15 - - -
20/02:30am - - - - - NE 20 32 11 17 - - -
20/02:00am - - - - - ENE 20 28 11 15 - - -
20/01:30am - - - - - ENE 19 28 10 15 - - -
20/01:00am - - - - - ENE 24 32 13 17 - - -
20/12:30am - - - - - ENE 22 28 12 15 - - -
20/12:00am - - - - - E 15 19 8 10 - - -
 
Date/Time
WST
Temp
°C
App
Temp
°C
Dew
Point
°C
Rel
Hum
%
Delta-T
°C
Wind Press
QNH
hPa
Press
MSL
hPa
Rain since
9am
mm
Dir  Spd
km/h
Gust
km/h
Spd
kts
Gust
kts
19/11:30pm - - - - - ENE 20 26 11 14 - - -
19/11:00pm - - - - - E 19 24 10 13 - - -
19/10:30pm - - - - - E 17 19 9 10 - - -
19/10:00pm - - - - - E 17 20 9 11 - - -
19/09:30pm - - - - - E 15 17 8 9 - - -
19/09:00pm - - - - - E 15 17 8 9 - - -
19/08:30pm - - - - - E 13 15 7 8 - - -
19/08:00pm - - - - - E 13 17 7 9 - - -
19/07:30pm - - - - - E 13 15 7 8 - - -
19/07:00pm - - - - - ENE 9 13 5 7 - - -
19/06:30pm - - - - - E 11 13 6 7 - - -
19/06:00pm - - - - - ENE 11 13 6 7 - - -
19/05:30pm - - - - - NE 9 11 5 6 - - -
19/05:00pm - - - - - NE 13 19 7 10 - - -
19/04:30pm - - - - - ENE 11 17 6 9 - - -
19/04:00pm - - - - - ENE 13 19 7 10 - - -
19/03:30pm - - - - - NE 13 20 7 11 - - -
19/03:00pm - - - - - NE 11 15 6 8 - - -
19/02:30pm - - - - - NE 13 28 7 15 - - -
19/02:00pm - - - - - ENE 17 26 9 14 - - -
19/01:30pm - - - - - N 17 26 9 14 - - -
19/01:00pm - - - - - NNE 19 33 10 18 - - -
19/12:30pm - - - - - NE 20 30 11 16 - - -
19/12:00pm - - - - - NNE 19 30 10 16 - - -
19/11:30am - - - - - NNE 22 32 12 17 - - -
19/11:00am - - - - - NE 24 37 13 20 - - -
19/10:30am - - - - - NE 24 43 13 23 - - -
19/10:00am - - - - - NNE 22 35 12 19 - - -
19/09:30am - - - - - NE 28 44 15 24 - - -
19/09:00am - - - - - NE 30 39 16 21 - - -
19/08:30am - - - - - NE 28 39 15 21 - - -
19/08:00am - - - - - NE 30 44 16 24 - - -
19/07:30am - - - - - NE 26 37 14 20 - - -
19/07:00am - - - - - NE 26 35 14 19 - - -
19/06:30am - - - - - NE 24 39 13 21 - - -
19/06:00am - - - - - NE 24 35 13 19 - - -
19/05:30am - - - - - NE 24 32 13 17 - - -
19/05:00am - - - - - NE 22 32 12 17 - - -
19/04:30am - - - - - NE 22 28 12 15 - - -
19/04:00am - - - - - NE 20 30 11 16 - - -
19/03:30am - - - - - ENE 19 26 10 14 - - -
19/03:00am - - - - - ENE 19 26 10 14 - - -
19/02:30am - - - - - ENE 17 22 9 12 - - -
19/02:00am - - - - - ENE 17 26 9 14 - - -
19/01:30am - - - - - ENE 17 24 9 13 - - -
19/01:00am - - - - - ENE 19 26 10 14 - - -
19/12:30am - - - - - ENE 17 20 9 11 - - -
19/12:00am - - - - - E 15 19 8 10 - - -
 
Date/Time
WST
Temp
°C
App
Temp
°C
Dew
Point
°C
Rel
Hum
%
Delta-T
°C
Wind Press
QNH
hPa
Press
MSL
hPa
Rain since
9am
mm
Dir  Spd
km/h
Gust
km/h
Spd
kts
Gust
kts
18/11:30pm - - - - - E 13 17 7 9 - - -
18/11:00pm - - - - - E 13 17 7 9 - - -
18/10:30pm - - - - - E 11 13 6 7 - - -
18/10:00pm - - - - - E 13 15 7 8 - - -
18/09:30pm - - - - - ESE 9 13 5 7 - - -
18/09:00pm - - - - - E 13 19 7 10 - - -
18/08:30pm - - - - - E 15 24 8 13 - - -
18/08:00pm - - - - - E 11 15 6 8 - - -
18/07:30pm - - - - - E 9 13 5 7 - - -
18/07:00pm - - - - - E 13 15 7 8 - - -
18/06:30pm - - - - - E 13 15 7 8 - - -
18/06:00pm - - - - - ESE 11 13 6 7 - - -
18/05:30pm - - - - - E 9 11 5 6 - - -
18/05:00pm - - - - - E 13 17 7 9 - - -
18/04:30pm - - - - - E 15 24 8 13 - - -
18/04:00pm - - - - - ENE 15 22 8 12 - - -
18/03:30pm - - - - - ENE 19 28 10 15 - - -
18/03:00pm - - - - - NE 19 30 10 16 - - -
18/02:30pm - - - - - ENE 19 30 10 16 - - -
18/02:00pm - - - - - NE 22 33 12 18 - - -
18/01:30pm - - - - - ENE 20 32 11 17 - - -
18/01:00pm - - - - - E 17 28 9 15 - - -
18/12:30pm - - - - - ENE 20 33 11 18 - - -
18/12:00pm - - - - - NE 24 37 13 20 - - -
18/11:30am - - - - - ENE 24 35 13 19 - - -
18/11:00am - - - - - NE 24 33 13 18 - - -
18/10:30am - - - - - ENE 24 39 13 21 - - -
18/10:00am - - - - - ENE 24 37 13 20 - - -
18/09:30am - - - - - ENE 28 39 15 21 - - -
18/09:00am - - - - - ENE 26 37 14 20 - - -
18/08:30am - - - - - ENE 26 35 14 19 - - -

Other formats

Comma delimited format used in spreadsheet applications
http://www.bom.gov.au/fwo/IDW60801/IDW60801.94607.axf

JavaScript Object Notation format (JSON) in row-major order
http://www.bom.gov.au/fwo/IDW60801/IDW60801.94607.json

Data quality

Most of these data are generated automatically and are frequently updated. Quality checks on data are not normally performed. It is possible for incorrect values to appear. Refer to information at About Latest Weather Observations and please check the disclaimer before using these data.